Time;durP1;ratioP1;P1;durP2;ratioP2;P2;SDS_P1;SDS_P2;PMS_P1;PMS_P2;Temp;Humidity;BMP_temperature;BMP_pressure;BME280_temperature;BME280_humidity;BME280_pressure;Samples;Min_cycle;Max_cycle;Signal;HPM_P1;HPM_P2
2022/07/26 00:01:50;;;;;;;8.53;2.37;;;;;;;19.35;100.00;101064.28;5036412;28;20951;-67
2022/07/26 00:04:15;;;;;;;6.97;2.07;;;;;;;19.32;100.00;101048.47;5037109;28;20206;-67
2022/07/26 00:06:41;;;;;;;12.30;2.27;;;;;;;19.39;100.00;101089.94;5039315;28;20758;-67
2022/07/26 00:09:06;;;;;;;8.13;2.47;;;;;;;19.29;100.00;101078.88;5035274;28;20184;-67
2022/07/26 00:11:32;;;;;;;6.80;2.73;;;;;;;18.70;100.00;100998.66;5041174;28;20208;-67
2022/07/26 00:14:00;;;;;;;6.20;2.20;;;;;;;19.23;100.00;101088.88;5041857;28;20777;-67
2022/07/26 00:16:26;;;;;;;8.23;2.43;;;;;;;19.26;100.00;101088.38;5039133;28;20435;-67
2022/07/26 00:18:51;;;;;;;5.70;2.10;;;;;;;19.43;100.00;101081.00;5042863;28;20430;-67
2022/07/26 00:21:17;;;;;;;8.17;2.23;;;;;;;19.28;100.00;101061.75;5039693;28;20808;-67
2022/07/26 00:23:42;;;;;;;10.63;2.67;;;;;;;19.19;100.00;101055.13;5037884;22;20231;-74
2022/07/26 00:26:07;;;;;;;8.93;2.47;;;;;;;18.65;100.00;100990.41;5026014;28;20272;-75
2022/07/26 00:28:33;;;;;;;11.23;2.73;;;;;;;18.95;100.00;101041.72;5028998;28;20183;-73
2022/07/26 00:30:58;;;;;;;7.60;2.50;;;;;;;19.04;100.00;101038.59;5025422;28;20188;-74
2022/07/26 00:33:24;;;;;;;10.00;2.63;;;;;;;19.47;100.00;101105.81;5010009;28;20680;-74
2022/07/26 00:35:49;;;;;;;10.83;2.43;;;;;;;19.29;100.00;101085.16;5004958;28;20276;-74
2022/07/26 00:38:14;;;;;;;9.00;2.60;;;;;;;19.20;100.00;101054.03;5005375;28;20214;-74
2022/07/26 00:40:40;;;;;;;11.47;2.80;;;;;;;19.30;100.00;101084.09;5008247;28;20184;-74
2022/07/26 00:43:06;;;;;;;13.93;3.40;;;;;;;18.97;100.00;101022.44;5004821;28;20582;-74
2022/07/26 00:45:31;;;;;;;9.27;2.10;;;;;;;18.56;100.00;100996.53;5021294;28;20189;-73
2022/07/26 00:47:57;;;;;;;9.47;2.50;;;;;;;17.98;100.00;100930.72;5004647;28;20193;-72
2022/07/26 00:50:22;;;;;;;10.87;2.50;;;;;;;19.38;100.00;101096.41;5007668;28;20189;-74
2022/07/26 00:52:49;;;;;;;10.13;2.60;;;;;;;19.29;100.00;101092.50;5004771;28;20216;-73
2022/07/26 00:55:16;;;;;;;7.27;2.47;;;;;;;19.30;100.00;101094.16;5009047;28;20201;-74
2022/07/26 00:57:42;;;;;;;6.07;1.90;;;;;;;19.43;100.00;101096.50;5023024;28;20447;-74
2022/07/26 01:00:22;;;;;;;8.83;2.17;;;;;;;18.99;100.00;101030.34;5007018;28;20825;-74
2022/07/26 01:02:48;;;;;;;7.00;2.10;;;;;;;19.49;100.00;101092.75;5006770;28;21480;-74
2022/07/26 01:05:13;;;;;;;5.97;1.93;;;;;;;18.87;100.00;101025.84;5010905;28;20436;-74
2022/07/26 01:07:39;;;;;;;11.03;2.10;;;;;;;18.91;100.00;101075.91;5007798;28;20271;-74
2022/07/26 01:10:11;;;;;;;7.27;2.20;;;;;;;18.89;100.00;101039.16;5005344;28;20185;-73
2022/07/26 01:12:36;;;;;;;6.30;1.83;;;;;;;18.86;100.00;101029.66;5005733;28;20213;-73
2022/07/26 01:15:02;;;;;;;7.07;2.50;;;;;;;18.57;100.00;100993.56;5004566;28;20483;-75
2022/07/26 01:17:27;;;;;;;4.40;1.37;;;;;;;18.98;100.00;101097.50;5004998;28;20188;-74
2022/07/26 01:19:53;;;;;;;8.17;1.90;;;;;;;19.20;100.00;101086.66;5005374;28;20439;-74
2022/07/26 01:22:18;;;;;;;6.40;2.10;;;;;;;18.69;100.00;101026.09;5007574;28;20349;-75
2022/07/26 01:24:44;;;;;;;9.90;2.23;;;;;;;18.55;100.00;101006.59;5006702;28;20188;-74
2022/07/26 01:27:09;;;;;;;5.77;1.80;;;;;;;18.73;100.00;101022.66;5003954;28;21898;-74
2022/07/26 01:29:35;;;;;;;6.23;1.80;;;;;;;18.53;100.00;100997.84;5011437;28;20178;-74
2022/07/26 01:32:02;;;;;;;3.70;1.77;;;;;;;19.18;100.00;101107.84;5005243;28;20188;-74
2022/07/26 01:34:28;;;;;;;8.17;2.53;;;;;;;19.09;100.00;101091.16;5006479;28;20554;-74
2022/07/26 01:36:55;;;;;;;5.53;1.90;;;;;;;18.90;100.00;101052.53;5001877;28;20451;-75
2022/07/26 01:39:20;;;;;;;4.77;1.33;;;;;;;19.09;100.00;101102.03;5004526;28;20304;-74
2022/07/26 01:41:45;;;;;;;2.80;1.40;;;;;;;18.26;100.00;100998.50;5006047;28;20531;-75
2022/07/26 01:44:11;;;;;;;4.97;1.67;;;;;;;19.09;100.00;101096.59;5004076;28;20215;-74
2022/07/26 01:46:36;;;;;;;2.63;1.50;;;;;;;18.94;100.00;101094.44;5005852;28;20197;-74
2022/07/26 01:49:02;;;;;;;3.73;1.70;;;;;;;18.60;100.00;101041.13;5002002;28;20232;-74
2022/07/26 01:51:28;;;;;;;4.53;1.50;;;;;;;18.82;100.00;101063.00;5004344;28;20634;-74
2022/07/26 01:53:53;;;;;;;4.33;1.70;;;;;;;19.14;100.00;101099.34;5003060;28;20467;-74
2022/07/26 01:56:18;;;;;;;5.33;1.53;;;;;;;18.71;100.00;101060.06;5003419;28;20197;-74
2022/07/26 01:58:44;;;;;;;4.00;1.27;;;;;;;19.02;100.00;101120.38;5002532;28;20736;-74
2022/07/26 02:01:09;;;;;;;3.20;1.40;;;;;;;18.88;100.00;101076.41;5002014;28;20185;-74
2022/07/26 02:03:35;;;;;;;11.77;2.00;;;;;;;18.29;100.00;101003.44;5006435;28;20208;-74
2022/07/26 02:06:01;;;;;;;6.37;1.70;;;;;;;18.73;100.00;101082.41;5005684;28;20197;-75
2022/07/26 02:08:26;;;;;;;5.23;1.70;;;;;;;18.22;100.00;101013.63;5002582;28;20217;-74
2022/07/26 02:11:01;;;;;;;5.20;1.73;;;;;;;18.75;100.00;101120.22;5004868;28;20188;-74
2022/07/26 02:13:33;;;;;;;5.80;1.63;;;;;;;18.72;100.00;101118.78;5005277;28;20291;-74
2022/07/26 02:15:59;;;;;;;3.40;1.80;;;;;;;18.90;100.00;101127.81;5001964;28;20931;-74
2022/07/26 02:18:27;;;;;;;3.50;1.83;;;;;;;18.55;100.00;101085.34;5007404;28;20927;-75
2022/07/26 02:20:52;;;;;;;6.00;1.83;;;;;;;18.21;100.00;101077.16;5000001;28;20476;-74
2022/07/26 02:23:18;;;;;;;4.63;1.90;;;;;;;18.14;100.00;101033.06;5003434;28;21038;-74
2022/07/26 02:25:43;;;;;;;5.33;2.10;;;;;;;18.14;100.00;101026.78;5004538;28;20251;-75
2022/07/26 02:28:09;;;;;;;5.77;2.10;;;;;;;18.33;100.00;101055.38;5001607;28;20598;-74
2022/07/26 02:30:35;;;;;;;3.87;1.73;;;;;;;17.91;100.00;100965.34;5004656;28;20596;-74
2022/07/26 02:33:00;;;;;;;4.63;1.80;;;;;;;18.41;100.00;101059.56;5003496;28;20220;-74
2022/07/26 02:35:26;;;;;;;5.73;1.63;;;;;;;18.24;100.00;101060.38;5004816;28;20522;-75
2022/07/26 02:37:51;;;;;;;4.00;1.87;;;;;;;18.65;100.00;101185.22;5005641;28;20178;-75
2022/07/26 02:40:17;;;;;;;4.30;1.87;;;;;;;18.29;100.00;101143.81;5003761;28;20499;-73
2022/07/26 02:42:42;;;;;;;7.57;1.60;;;;;;;17.79;100.00;101065.75;5003003;28;20209;-83
2022/07/26 02:45:08;;;;;;;3.43;1.47;;;;;;;18.16;100.00;101134.06;5001811;28;20185;-83
2022/07/26 02:47:33;;;;;;;5.33;1.87;;;;;;;18.03;100.00;101127.03;5018405;28;20192;-77
2022/07/26 02:49:59;;;;;;;5.33;1.87;;;;;;;17.74;100.00;101047.47;5003761;28;20191;-75
2022/07/26 02:52:24;;;;;;;6.20;1.70;;;;;;;17.93;100.00;101069.84;5005321;28;20247;-75
2022/07/26 02:54:49;;;;;;;4.93;1.60;;;;;;;17.88;100.00;101066.19;5004563;28;20201;-75
2022/07/26 02:57:15;;;;;;;5.73;2.30;;;;;;;17.72;100.00;101011.63;5003355;28;20557;-74
2022/07/26 02:59:40;;;;;;;5.00;1.77;;;;;;;18.20;100.00;101154.25;5004604;28;20177;-74
2022/07/26 03:02:06;;;;;;;6.43;2.43;;;;;;;17.72;100.00;101048.78;5003435;28;20578;-74
2022/07/26 03:04:31;;;;;;;6.27;2.50;;;;;;;17.99;100.00;101116.88;5006284;28;20412;-75
2022/07/26 03:06:57;;;;;;;5.30;1.77;;;;;;;17.59;100.00;101075.13;5003386;28;20644;-74
2022/07/26 03:09:22;;;;;;;6.50;1.87;;;;;;;17.34;100.00;101051.00;5003895;28;20188;-74
2022/07/26 03:11:48;;;;;;;3.33;1.70;;;;;;;17.94;100.00;101146.66;5006133;28;20181;-75
2022/07/26 03:14:13;;;;;;;4.30;1.40;;;;;;;18.29;100.00;101188.09;5004685;28;20849;-74
2022/07/26 03:16:39;;;;;;;5.43;1.77;;;;;;;17.74;100.00;101166.84;5001694;28;20201;-74
2022/07/26 03:19:05;;;;;;;6.63;1.50;;;;;;;17.93;100.00;101124.09;5003863;28;20185;-74
2022/07/26 03:21:30;;;;;;;4.50;1.37;;;;;;;17.89;100.00;101124.84;5002665;28;20272;-74
2022/07/26 03:23:55;;;;;;;5.20;1.70;;;;;;;18.45;100.00;101193.81;5003815;28;20257;-74
2022/07/26 03:26:21;;;;;;;4.27;1.43;;;;;;;17.70;100.00;101103.25;5000945;28;20536;-74
2022/07/26 03:28:46;;;;;;;2.53;0.80;;;;;;;17.30;100.00;101073.38;5003926;28;20657;-73
2022/07/26 03:31:12;;;;;;;4.50;1.33;;;;;;;17.68;100.00;101143.38;5004425;28;20181;-73
2022/07/26 03:33:38;;;;;;;5.73;1.33;;;;;;;17.71;100.00;101161.91;4999336;28;20223;-73
2022/07/26 03:36:04;;;;;;;4.20;0.90;;;;;;;17.52;100.00;101158.47;5002781;28;20224;-73
2022/07/26 03:38:30;;;;;;;4.50;1.30;;;;;;;17.13;100.00;101078.72;5002531;28;20502;-74
2022/07/26 03:40:55;;;;;;;3.93;1.00;;;;;;;18.28;100.00;101229.03;5003107;28;20442;-73
2022/07/26 03:43:20;;;;;;;4.80;1.63;;;;;;;18.11;100.00;101209.13;5002492;28;20358;-73
2022/07/26 03:45:46;;;;;;;3.77;1.17;;;;;;;18.01;100.00;101209.75;5005189;28;20561;-73
2022/07/26 03:48:11;;;;;;;3.97;1.23;;;;;;;17.89;100.00;101182.66;5008880;28;20177;-72
2022/07/26 03:50:37;;;;;;;3.53;1.10;;;;;;;18.20;100.00;101197.69;5007310;28;20188;-72
2022/07/26 03:53:03;;;;;;;1.27;0.60;;;;;;;18.24;100.00;101217.03;5005310;28;20208;-72
2022/07/26 03:58:12;;;;;;;1.97;0.80;;;;;;;18.16;100.00;101191.06;5005830;28;20477;-72
2022/07/26 04:00:38;;;;;;;3.00;1.00;;;;;;;18.07;100.00;101193.34;5007103;28;20445;-73
2022/07/26 04:03:03;;;;;;;2.70;0.70;;;;;;;18.23;100.00;101226.25;5006118;28;20593;-72
2022/07/26 04:05:28;;;;;;;1.97;0.80;;;;;;;17.88;100.00;101180.16;5003594;28;20286;-72
2022/07/26 04:07:54;;;;;;;1.50;0.77;;;;;;;17.40;100.00;101123.25;5001682;28;20192;-72
2022/07/26 04:10:21;;;;;;;1.83;0.70;;;;;;;18.25;100.00;101245.81;5006183;28;20560;-72
2022/07/26 04:12:46;;;;;;;2.20;0.97;;;;;;;18.32;100.00;101237.56;5006371;28;20204;-72
2022/07/26 04:15:12;;;;;;;2.33;0.80;;;;;;;18.28;100.00;101231.75;5004451;28;20474;-73
2022/07/26 04:17:38;;;;;;;1.70;0.70;;;;;;;16.51;100.00;100976.19;5008141;28;20557;-72
2022/07/26 04:20:05;;;;;;;3.83;1.07;;;;;;;17.87;100.00;101190.19;5008440;28;20572;-72
2022/07/26 04:22:31;;;;;;;1.97;0.90;;;;;;;17.73;100.00;101180.63;5007197;28;20495;-73
2022/07/26 04:24:56;;;;;;;4.50;0.93;;;;;;;18.08;100.00;101243.03;5007141;28;20438;-73
2022/07/26 04:27:21;;;;;;;2.57;0.80;;;;;;;17.92;100.00;101231.03;5005204;28;20215;-73
2022/07/26 04:29:47;;;;;;;1.70;0.60;;;;;;;16.32;100.00;100994.44;5008886;28;20185;-73
2022/07/26 04:32:12;;;;;;;3.03;0.70;;;;;;;17.40;100.00;101198.34;5008455;28;20677;-73
2022/07/26 04:34:38;;;;;;;2.70;0.93;;;;;;;16.64;100.00;101061.81;5008446;28;20288;-73
2022/07/26 04:37:03;;;;;;;8.65;1.60;;;;;;;17.40;100.00;101142.22;5005347;28;20562;-73
2022/07/26 04:39:28;;;;;;;2.17;0.90;;;;;;;17.84;100.00;101240.34;5004973;28;20200;-73
2022/07/26 04:41:54;;;;;;;2.67;0.87;;;;;;;17.58;100.00;101219.91;5009153;28;20181;-73
2022/07/26 04:44:19;;;;;;;1.07;0.70;;;;;;;17.92;100.00;101281.75;5005423;28;20658;-73
2022/07/26 04:46:45;;;;;;;1.23;0.60;;;;;;;17.61;100.00;101233.00;5005983;28;20733;-73
2022/07/26 04:49:10;;;;;;;2.20;1.00;;;;;;;17.79;100.00;101261.09;5007315;28;20212;-74
2022/07/26 04:51:35;;;;;;;1.60;0.93;;;;;;;17.85;100.00;101254.75;5007267;28;20181;-74
2022/07/26 04:54:01;;;;;;;3.17;0.70;;;;;;;17.63;100.00;101211.06;5005413;28;20581;-74
2022/07/26 04:56:26;;;;;;;1.17;0.60;;;;;;;17.93;100.00;101240.81;5006177;28;20204;-73
2022/07/26 04:58:51;;;;;;;2.10;0.90;;;;;;;17.77;100.00;101274.88;5008043;28;20211;-75
2022/07/26 05:01:17;;;;;;;2.63;0.80;;;;;;;16.95;100.00;101182.59;5003388;28;20197;-75
2022/07/26 05:03:42;;;;;;;2.73;0.80;;;;;;;17.21;100.00;101251.81;5010156;28;20209;-75
2022/07/26 05:06:08;;;;;;;1.93;0.70;;;;;;;17.82;100.00;101304.06;5002049;28;20204;-75
2022/07/26 05:08:33;;;;;;;2.13;0.60;;;;;;;17.40;100.00;101199.16;5007816;28;20197;-75
2022/07/26 05:10:58;;;;;;;1.90;0.70;;;;;;;17.12;100.00;101183.56;5006252;28;20267;-75
2022/07/26 05:13:24;;;;;;;1.10;0.70;;;;;;;17.39;100.00;101197.53;5001873;28;20224;-75
2022/07/26 05:15:49;;;;;;;1.63;0.70;;;;;;;17.89;100.00;101268.66;5002395;28;20212;-75
2022/07/26 05:18:16;;;;;;;1.93;0.80;;;;;;;18.23;100.00;101329.44;5006886;28;20196;-75
2022/07/26 05:20:41;;;;;;;2.70;0.80;;;;;;;17.27;100.00;101212.13;5005985;28;20214;-75
2022/07/26 05:23:07;;;;;;;5.23;1.30;;;;;;;18.15;100.00;101325.16;4996449;28;20993;-74
2022/07/26 05:25:32;;;;;;;2.30;1.00;;;;;;;17.88;100.00;101319.41;5007380;28;20180;-74
2022/07/26 05:27:57;;;;;;;5.33;1.23;;;;;;;17.80;100.00;101281.75;5006764;28;20184;-74
2022/07/26 05:30:23;;;;;;;2.30;0.80;;;;;;;18.03;100.00;101287.19;5013953;28;20319;-74
2022/07/26 05:32:48;;;;;;;6.17;1.80;;;;;;;17.33;100.00;101238.31;5008831;28;20248;-74
2022/07/26 05:35:14;;;;;;;3.97;1.00;;;;;;;16.36;100.00;101079.53;5008247;28;20215;-74
2022/07/26 05:37:39;;;;;;;4.37;0.90;;;;;;;17.46;100.00;101270.63;5005779;28;20196;-75
2022/07/26 05:40:05;;;;;;;1.80;0.73;;;;;;;17.60;100.00;101249.53;5005787;28;20197;-75
2022/07/26 05:42:31;;;;;;;1.73;0.73;;;;;;;18.07;100.00;101352.66;5004561;28;20205;-75
2022/07/26 05:44:56;;;;;;;3.27;0.80;;;;;;;17.25;100.00;101252.22;5003299;28;20467;-75
2022/07/26 05:47:22;;;;;;;2.17;1.00;;;;;;;18.24;100.00;101363.66;5008620;28;20194;-75
2022/07/26 05:49:47;;;;;;;4.50;0.97;;;;;;;18.00;100.00;101376.41;5004364;28;20185;-76
2022/07/26 05:52:13;;;;;;;3.90;1.10;;;;;;;16.52;100.00;101196.34;5008715;28;20276;-76
2022/07/26 05:54:38;;;;;;;2.00;0.80;;;;;;;15.79;100.00;101149.38;5008628;28;20533;-77
2022/07/26 05:57:04;;;;;;;3.17;1.10;;;;;;;17.20;100.00;101387.59;5004877;28;20604;-78
2022/07/26 05:59:30;;;;;;;4.77;1.00;;;;;;;17.50;100.00;101402.00;5021440;28;20649;-79
2022/07/26 06:01:55;;;;;;;6.13;1.33;;;;;;;16.63;100.00;101282.22;5008651;28;20181;-78
2022/07/26 06:04:22;;;;;;;3.63;1.13;;;;;;;17.44;100.00;101378.47;5008435;28;20259;-78
2022/07/26 06:06:48;;;;;;;2.17;0.90;;;;;;;16.21;100.00;101149.50;5006710;28;20220;-78
2022/07/26 06:09:13;;;;;;;3.97;0.90;;;;;;;16.03;100.00;101162.00;4994583;28;21264;-74
2022/07/26 06:11:39;;;;;;;2.80;1.00;;;;;;;15.99;100.00;101131.03;5000560;28;20439;-76
2022/07/26 06:14:04;;;;;;;2.03;1.03;;;;;;;17.55;100.00;101350.56;4999164;28;20217;-77
2022/07/26 06:16:29;;;;;;;2.77;0.80;;;;;;;17.40;100.00;101315.75;4986013;28;20217;-76
2022/07/26 06:18:55;;;;;;;5.00;0.87;;;;;;;17.68;100.00;101357.69;4986254;28;20185;-77
2022/07/26 06:21:20;;;;;;;2.60;0.70;;;;;;;18.00;100.00;101390.78;4989959;28;20664;-77
2022/07/26 06:23:45;;;;;;;2.87;0.70;;;;;;;16.97;100.00;101220.31;4999096;28;20588;-76
2022/07/26 06:26:11;;;;;;;2.27;1.10;;;;;;;17.05;100.00;101347.38;5004895;28;20201;-75
2022/07/26 06:28:38;;;;;;;2.40;0.80;;;;;;;15.72;100.00;101200.84;5002183;28;20193;-75
2022/07/26 06:31:04;;;;;;;1.27;0.80;;;;;;;16.45;100.00;101292.03;4999266;28;20185;-75
2022/07/26 06:33:29;;;;;;;4.10;0.77;;;;;;;16.98;100.00;101414.34;4980659;28;21155;-74
2022/07/26 06:35:54;;;;;;;2.00;1.20;;;;;;;17.26;100.00;101436.31;4995024;28;20260;-74
2022/07/26 06:38:20;;;;;;;2.60;1.00;;;;;;;16.62;100.00;101359.13;5002752;28;20188;-74
2022/07/26 06:40:45;;;;;;;2.03;0.80;;;;;;;16.73;100.00;101380.84;5003533;28;20189;-73
2022/07/26 06:43:11;;;;;;;2.33;0.90;;;;;;;16.73;100.00;101347.53;5003066;28;20208;-75
2022/07/26 06:45:36;;;;;;;4.47;1.00;;;;;;;17.28;100.00;101453.19;5001538;28;20200;-74
2022/07/26 06:48:02;;;;;;;3.97;0.97;;;;;;;17.39;100.00;101451.59;5001067;28;20196;-74
2022/07/26 06:50:27;;;;;;;1.63;0.63;;;;;;;17.32;100.00;101469.81;4997002;28;20196;-74
2022/07/26 06:52:52;;;;;;;5.30;0.90;;;;;;;17.01;100.00;101414.75;5003181;28;20200;-74
2022/07/26 06:55:18;;;;;;;2.00;0.70;;;;;;;17.59;100.00;101454.03;4997637;28;20205;-74
2022/07/26 06:57:43;;;;;;;4.37;0.80;;;;;;;17.53;100.00;101452.22;4992200;28;20275;-74
2022/07/26 07:00:09;;;;;;;2.83;0.87;;;;;;;16.96;100.00;101365.81;4989154;28;20196;-74
2022/07/26 07:02:35;;;;;;;2.57;0.70;;;;;;;16.62;100.00;101310.38;4995595;28;20208;-74
2022/07/26 07:05:01;;;;;;;2.10;0.70;;;;;;;16.81;100.00;101344.56;5000618;28;20444;-75
2022/07/26 07:07:27;;;;;;;1.43;0.60;;;;;;;17.92;100.00;101458.16;4999659;28;20276;-74
2022/07/26 07:09:53;;;;;;;1.60;0.67;;;;;;;18.21;100.00;101453.72;5005291;28;20534;-74
2022/07/26 07:12:18;;;;;;;0.73;0.53;;;;;;;18.30;100.00;101457.75;5002810;28;20211;-75
2022/07/26 07:14:44;;;;;;;1.30;0.77;;;;;;;18.09;100.00;101461.03;4998406;28;20240;-74
2022/07/26 07:17:10;;;;;;;3.50;1.13;;;;;;;16.33;100.00;101155.78;4993696;28;20196;-74
2022/07/26 07:19:36;;;;;;;1.73;0.80;;;;;;;16.41;100.00;101147.34;5003625;28;20700;-75
2022/07/26 07:22:03;;;;;;;1.47;0.63;;;;;;;18.33;100.00;101486.31;5006968;28;20634;-75
2022/07/26 07:24:29;;;;;;;2.60;0.80;;;;;;;17.95;100.00;101374.38;5005367;28;20436;-74
2022/07/26 07:26:54;;;;;;;2.03;0.70;;;;;;;16.80;100.00;101225.56;5005566;28;20460;-74
2022/07/26 07:29:19;;;;;;;1.80;0.70;;;;;;;16.27;100.00;101192.72;5007840;28;20198;-74
2022/07/26 07:31:46;;;;;;;3.40;0.80;;;;;;;18.37;100.00;101490.22;5006111;28;20192;-74
2022/07/26 07:34:13;;;;;;;1.90;0.60;;;;;;;17.18;100.00;101287.53;5000163;28;20197;-74
2022/07/26 07:36:39;;;;;;;2.60;0.90;;;;;;;17.63;100.00;101369.22;5008931;28;20443;-75
2022/07/26 07:39:04;;;;;;;1.93;0.80;;;;;;;17.97;100.00;101442.00;5003245;28;20442;-75
2022/07/26 07:41:33;;;;;;;3.30;1.00;;;;;;;18.32;100.00;101480.06;5004467;28;20223;-74
2022/07/26 07:43:59;;;;;;;3.43;1.20;;;;;;;16.80;100.00;101239.94;5006198;28;20197;-74
2022/07/26 07:46:24;;;;;;;2.03;0.97;;;;;;;16.26;100.00;101172.13;5008429;28;20442;-75
2022/07/26 07:48:50;;;;;;;2.73;0.80;;;;;;;18.04;100.00;101494.28;5002415;28;22052;-74
2022/07/26 07:51:15;;;;;;;1.67;0.80;;;;;;;17.27;100.00;101366.63;4997144;28;20330;-74
2022/07/26 07:53:41;;;;;;;3.20;0.90;;;;;;;17.91;100.00;101503.47;5003469;28;20237;-76
2022/07/26 07:56:06;;;;;;;3.90;1.23;;;;;;;17.69;100.00;101467.03;5010241;28;20198;-75
2022/07/26 07:58:31;;;;;;;3.10;0.90;;;;;;;17.91;100.00;101487.19;5011893;28;20176;-75
2022/07/26 08:00:57;;;;;;;2.47;0.70;;;;;;;17.13;100.00;101401.25;5005243;28;20198;-74
2022/07/26 08:03:23;;;;;;;3.80;0.90;;;;;;;17.61;100.00;101419.34;5003917;28;21095;-74
2022/07/26 08:05:48;;;;;;;2.53;0.90;;;;;;;17.90;100.00;101454.84;5004544;28;20224;-74
2022/07/26 08:08:15;;;;;;;3.80;1.10;;;;;;;18.04;100.00;101500.53;5003330;28;20192;-74
2022/07/26 08:10:41;;;;;;;2.70;0.93;;;;;;;17.87;100.00;101501.44;5007797;28;20192;-74
2022/07/26 08:13:06;;;;;;;3.63;1.00;;;;;;;17.32;100.00;101389.28;5006405;28;21020;-75
2022/07/26 08:15:31;;;;;;;3.80;1.27;;;;;;;18.08;100.00;101528.06;5008125;28;20661;-75
2022/07/26 08:17:57;;;;;;;3.30;1.13;;;;;;;17.51;100.00;101428.03;5003530;28;20185;-73
2022/07/26 08:20:22;;;;;;;2.97;1.00;;;;;;;17.43;100.00;101427.53;4994956;28;20181;-77
2022/07/26 08:22:48;;;;;;;1.53;0.90;;;;;;;18.49;100.00;101512.78;4990396;28;21317;-74
2022/07/26 08:25:13;;;;;;;2.70;1.20;;;;;;;17.68;100.00;101432.81;4992618;28;20189;-74
2022/07/26 08:27:38;;;;;;;2.13;1.10;;;;;;;18.48;100.00;101495.66;4995125;28;20193;-73
2022/07/26 08:30:04;;;;;;;1.33;0.80;;;;;;;17.74;100.00;101374.94;4994774;28;20185;-75
2022/07/26 08:32:30;;;;;;;3.90;0.80;;;;;;;18.77;100.00;101524.88;5001126;28;20258;-74
2022/07/26 08:34:56;;;;;;;2.20;0.87;;;;;;;17.48;100.00;101354.47;4999697;28;20472;-75
2022/07/26 08:37:21;;;;;;;2.30;0.80;;;;;;;17.06;100.00;101263.09;4994261;28;20208;-74
2022/07/26 08:39:47;;;;;;;1.53;0.90;;;;;;;18.65;100.00;101495.78;5006508;28;20731;-74
2022/07/26 08:42:18;;;;;;;3.80;1.40;;;;;;;17.92;100.00;101317.03;4990868;28;20245;-74
2022/07/26 08:44:45;;;;;;;1.43;0.90;;;;;;;18.94;100.00;101531.25;4999190;28;20530;-74
2022/07/26 08:47:17;;;;;;;2.33;1.10;;;;;;;19.21;100.00;101523.41;5000533;28;20436;-74
2022/07/26 08:49:43;;;;;;;2.83;0.93;;;;;;;18.29;100.00;101415.38;5005441;28;20431;-75
2022/07/26 08:52:10;;;;;;;3.77;1.00;;;;;;;18.99;100.00;101544.94;5003320;28;20974;-74
2022/07/26 08:54:40;;;;;;;1.83;0.80;;;;;;;18.61;100.00;101458.47;4991818;28;20460;-77
2022/07/26 08:57:06;;;;;;;1.30;0.60;;;;;;;19.26;100.00;101561.56;5001544;28;20802;-75
2022/07/26 08:59:31;;;;;;;1.20;0.90;;;;;;;18.63;100.00;101459.88;5006758;28;20447;-76
2022/07/26 09:02:04;;;;;;;2.30;0.77;;;;;;;19.22;100.00;101500.59;5007225;28;20193;-76
2022/07/26 09:04:43;;;;;;;3.83;1.30;;;;;;;18.32;100.00;101433.06;5004234;28;20189;-75
2022/07/26 09:07:15;;;;;;;3.13;1.20;;;;;;;19.55;100.00;101546.13;5001839;28;20938;-76
2022/07/26 09:10:01;;;;;;;4.30;1.10;;;;;;;19.44;100.00;101557.91;5007990;28;21000;-76
2022/07/26 09:12:28;;;;;;;3.37;1.10;;;;;;;19.49;100.00;101560.69;5003808;28;20466;-76
2022/07/26 09:14:55;;;;;;;5.67;1.30;;;;;;;19.18;100.00;101535.59;5005642;28;21043;-76
2022/07/26 09:17:23;;;;;;;4.90;1.40;;;;;;;19.11;100.00;101523.19;4999056;28;20519;-75
2022/07/26 09:20:09;;;;;;;4.17;1.50;;;;;;;19.67;100.00;101558.91;5006579;28;20463;-76
2022/07/26 09:22:37;;;;;;;3.63;1.00;;;;;;;19.71;100.00;101568.25;5004479;28;20499;-76
2022/07/26 09:25:18;;;;;;;2.50;1.20;;;;;;;19.71;100.00;101566.34;5008945;28;20462;-76
2022/07/26 09:27:44;;;;;;;6.70;1.77;;;;;;;18.73;100.00;101509.03;5002084;28;20444;-75
2022/07/26 09:30:10;;;;;;;5.17;1.67;;;;;;;18.16;100.00;101507.88;5001039;28;20449;-77
2022/07/26 09:32:35;;;;;;;6.20;1.57;;;;;;;18.32;100.00;101539.00;4998586;28;20274;-80
2022/07/26 09:35:15;;;;;;;6.67;2.10;;;;;;;18.11;100.00;101486.03;5001685;28;20537;-77
2022/07/26 09:37:42;;;;;;;5.97;1.83;;;;;;;18.74;100.00;101551.44;5006355;28;20207;-77
2022/07/26 09:40:12;;;;;;;4.37;1.47;;;;;;;18.98;100.00;101597.69;5005568;28;20830;-77
2022/07/26 09:43:01;;;;;;;6.23;2.00;;;;;;;19.20;100.00;101606.06;5005486;28;20474;-77
2022/07/26 09:45:30;;;;;;;4.60;1.63;;;;;;;19.04;100.00;101613.03;5006908;28;20416;-76
2022/07/26 09:47:55;;;;;;;6.63;1.77;;;;;;;19.09;100.00;101615.03;5007161;28;20939;-77
2022/07/26 09:50:26;;;;;;;5.70;2.00;;;;;;;18.92;100.00;101615.75;5004628;28;20452;-78
2022/07/26 09:53:08;;;;;;;11.00;2.00;;;;;;;18.81;100.00;101621.19;5002867;28;20255;-77
2022/07/26 09:55:43;;;;;;;5.43;1.70;;;;;;;18.85;100.00;101617.75;5001317;28;20487;-78
2022/07/26 09:58:12;;;;;;;4.90;1.47;;;;;;;18.85;100.00;101622.38;5002661;28;20939;-77
2022/07/26 10:00:38;;;;;;;7.10;1.93;;;;;;;18.13;100.00;101517.31;5014988;28;21010;-78
2022/07/26 10:03:04;;;;;;;7.30;1.60;;;;;;;19.12;100.00;101630.88;5005128;28;20464;-79
2022/07/26 10:05:31;;;;;;;13.00;2.40;;;;;;;19.05;100.00;101631.00;5006549;28;20196;-79
2022/07/26 10:07:58;;;;;;;4.30;1.70;;;;;;;18.61;100.00;101567.97;5005514;28;20191;-77
2022/07/26 10:10:36;;;;;;;3.80;1.53;;;;;;;18.50;100.00;101623.91;5007604;28;20427;-75
2022/07/26 10:13:02;;;;;;;7.50;1.80;;;;;;;18.86;100.00;101645.75;5005106;28;20463;-78
2022/07/26 10:15:43;;;;;;;7.10;2.10;;;;;;;18.69;100.00;101653.75;5007336;28;20465;-80
2022/07/26 10:18:12;;;;;;;4.30;1.27;;;;;;;18.56;100.00;101651.22;5006935;28;20291;-78
2022/07/26 10:20:47;;;;;;;6.13;1.83;;;;;;;18.44;100.00;101591.44;5006859;28;20428;-78
2022/07/26 10:23:31;;;;;;;6.43;1.63;;;;;;;18.88;100.00;101660.75;5005936;28;20518;-78
2022/07/26 10:25:56;;;;;;;6.50;1.37;;;;;;;18.51;100.00;101644.63;5006166;28;20499;-77
2022/07/26 10:28:25;;;;;;;7.03;1.67;;;;;;;18.26;100.00;101557.03;5006123;28;20507;-77
2022/07/26 10:30:52;;;;;;;4.40;1.67;;;;;;;18.90;100.00;101661.38;5003609;28;20197;-79
2022/07/26 10:33:22;;;;;;;8.10;1.70;;;;;;;18.38;100.00;101603.22;5007969;28;20860;-78
2022/07/26 10:35:47;;;;;;;3.60;1.60;;;;;;;18.38;100.00;101576.91;5006582;28;20873;-78
2022/07/26 10:38:21;;;;;;;4.30;1.33;;;;;;;19.16;100.00;101670.97;5007270;28;20514;-77
2022/07/26 10:41:00;;;;;;;3.13;1.30;;;;;;;19.10;100.00;101622.16;5005839;28;20185;-78
2022/07/26 10:43:26;;;;;;;3.37;1.00;;;;;;;19.39;100.00;101663.88;5001778;28;20529;-80
2022/07/26 10:46:15;;;;;;;3.57;1.30;;;;;;;19.47;100.00;101622.72;5003663;28;20467;-78
2022/07/26 10:49:02;;;;;;;3.83;1.00;;;;;;;20.18;100.00;101668.81;5006764;28;20502;-78
2022/07/26 10:51:31;;;;;;;4.50;1.73;;;;;;;20.18;100.00;101672.38;5006536;28;20801;-78
2022/07/26 10:54:08;;;;;;;2.70;1.10;;;;;;;19.83;100.00;101596.25;5005749;28;20463;-77
2022/07/26 10:56:34;;;;;;;5.87;1.50;;;;;;;20.17;100.00;101672.63;5006846;28;20474;-76
2022/07/26 10:59:02;;;;;;;5.30;1.53;;;;;;;20.20;100.00;101677.59;5007372;28;20911;-77
2022/07/26 11:01:39;;;;;;;5.40;1.20;;;;;;;20.26;100.00;101677.44;5005468;28;20603;-79
2022/07/26 11:04:16;;;;;;;2.20;1.10;;;;;;;20.60;100.00;101673.97;4999074;28;20463;-76
2022/07/26 11:06:44;;;;;;;4.53;1.23;;;;;;;20.01;100.00;101579.72;5001515;28;20513;-76
2022/07/26 11:09:11;;;;;;;4.50;1.40;;;;;;;20.39;100.00;101681.75;5003577;28;20474;-77
2022/07/26 11:11:37;;;;;;;3.33;1.00;;;;;;;18.33;100.00;101435.53;5005431;28;20939;-77
2022/07/26 11:14:04;;;;;;;4.93;1.20;;;;;;;20.08;100.00;101677.63;5005647;28;20440;-77
2022/07/26 11:16:36;;;;;;;6.40;2.07;;;;;;;18.79;100.00;101414.03;5018091;28;21108;-77
2022/07/26 11:19:12;;;;;;;4.77;1.37;;;;;;;20.49;100.00;101672.97;5000933;28;20802;-78